createdAt,value
2019-03-16T00:01:17.720Z,10.70
2019-03-16T00:03:46.466Z,10.20
2019-03-16T00:06:15.263Z,10.00
2019-03-16T00:08:44.104Z,8.50
2019-03-16T00:11:12.879Z,7.30
2019-03-16T00:13:41.692Z,7.00
2019-03-16T00:16:10.476Z,6.70
2019-03-16T00:18:39.218Z,6.43
2019-03-16T00:21:07.947Z,5.73
2019-03-16T00:23:36.668Z,8.03
2019-03-16T00:26:05.451Z,7.00
2019-03-16T00:28:34.194Z,5.13
2019-03-16T00:31:02.907Z,3.00
2019-03-16T00:33:31.723Z,2.77
2019-03-16T00:36:00.514Z,3.33
2019-03-16T00:38:29.313Z,4.90
2019-03-16T00:40:58.102Z,3.40
2019-03-16T00:43:26.884Z,3.67
2019-03-16T00:45:55.713Z,4.47
2019-03-16T00:48:24.600Z,3.17
2019-03-16T00:50:53.381Z,3.33
2019-03-16T00:53:22.168Z,3.60
2019-03-16T00:55:50.924Z,3.53
2019-03-16T00:58:19.643Z,3.50
2019-03-16T01:00:48.459Z,3.83
2019-03-16T01:03:17.173Z,3.00
2019-03-16T01:05:45.976Z,3.47
2019-03-16T01:08:14.757Z,3.20
2019-03-16T01:10:43.486Z,3.20
2019-03-16T01:13:12.269Z,3.97
2019-03-16T01:15:40.993Z,4.47
2019-03-16T01:18:09.700Z,3.37
2019-03-16T01:20:38.449Z,3.17
2019-03-16T01:23:07.169Z,3.60
2019-03-16T01:25:35.976Z,3.17
2019-03-16T01:28:04.759Z,3.33
2019-03-16T01:30:33.831Z,2.83
2019-03-16T01:33:02.608Z,2.80
2019-03-16T01:35:31.351Z,3.07
2019-03-16T01:38:00.071Z,2.73
2019-03-16T01:40:28.798Z,2.40
2019-03-16T01:42:57.522Z,2.60
2019-03-16T01:45:26.307Z,3.43
2019-03-16T01:47:55.099Z,3.00
2019-03-16T01:50:23.874Z,3.93
2019-03-16T01:52:52.731Z,3.50
2019-03-16T01:55:21.448Z,3.00
2019-03-16T01:57:50.200Z,3.27
2019-03-16T02:00:18.920Z,3.37
2019-03-16T02:02:55.059Z,4.30
2019-03-16T02:05:18.294Z,2.50
2019-03-16T02:07:47.027Z,2.90
2019-03-16T02:10:15.726Z,2.43
2019-03-16T02:12:44.469Z,2.63
2019-03-16T02:15:13.313Z,3.13
2019-03-16T02:17:42.130Z,3.03
2019-03-16T02:20:11.056Z,2.93
2019-03-16T02:22:39.793Z,2.87
2019-03-16T02:25:08.772Z,2.50
2019-03-16T02:27:37.686Z,3.27
2019-03-16T02:30:09.388Z,2.60
2019-03-16T02:32:38.183Z,2.63
2019-03-16T02:35:07.328Z,3.30
2019-03-16T02:37:36.150Z,2.60
2019-03-16T02:40:07.000Z,2.70
2019-03-16T02:42:35.808Z,2.90
2019-03-16T02:45:06.890Z,2.73
2019-03-16T02:47:35.780Z,2.30
2019-03-16T02:50:06.953Z,2.40
2019-03-16T02:52:35.743Z,3.03
2019-03-16T02:55:06.748Z,3.07
2019-03-16T02:57:35.607Z,3.80
2019-03-16T03:00:07.062Z,3.00
2019-03-16T03:02:35.832Z,2.60
2019-03-16T03:05:06.738Z,3.10
2019-03-16T03:07:35.618Z,3.20
2019-03-16T03:10:09.599Z,3.00
2019-03-16T03:12:38.378Z,3.17
2019-03-16T03:15:08.164Z,3.00
2019-03-16T03:17:36.870Z,3.13
2019-03-16T03:20:07.157Z,3.17
2019-03-16T03:22:36.017Z,3.13
2019-03-16T03:25:05.583Z,3.20
2019-03-16T03:27:34.439Z,3.90
2019-03-16T03:30:10.903Z,3.53
2019-03-16T03:32:39.789Z,3.83
2019-03-16T03:35:09.210Z,3.27
2019-03-16T03:37:37.996Z,3.60
2019-03-16T03:40:09.204Z,4.03
2019-03-16T03:42:38.085Z,3.73
2019-03-16T03:45:08.220Z,4.27
2019-03-16T03:47:36.649Z,3.53
2019-03-16T03:50:06.432Z,4.50
2019-03-16T03:52:35.015Z,4.50
2019-03-16T03:55:04.644Z,4.50
2019-03-16T03:57:33.466Z,4.57
2019-03-16T04:00:02.640Z,5.50
2019-03-16T04:02:31.608Z,5.03
2019-03-16T04:05:00.702Z,5.70
2019-03-16T04:07:29.816Z,6.07
2019-03-16T04:09:58.924Z,5.13
2019-03-16T04:12:28.114Z,6.67
2019-03-16T04:14:57.261Z,7.33
2019-03-16T04:17:26.435Z,6.60
2019-03-16T04:19:55.595Z,6.67
2019-03-16T04:22:24.942Z,7.43
2019-03-16T04:24:54.158Z,7.30
2019-03-16T04:27:23.331Z,7.27
2019-03-16T04:29:52.474Z,8.00
2019-03-16T04:32:21.700Z,7.10
2019-03-16T04:34:50.968Z,9.20
2019-03-16T04:37:20.201Z,8.30
2019-03-16T04:39:49.479Z,8.30
2019-03-16T04:42:18.852Z,8.67
2019-03-16T04:44:48.172Z,8.90
2019-03-16T04:47:17.611Z,7.63
2019-03-16T04:49:46.840Z,8.83
2019-03-16T04:52:15.971Z,9.37
2019-03-16T04:54:45.100Z,7.97
2019-03-16T04:57:14.182Z,8.30
2019-03-16T04:59:43.309Z,8.47
2019-03-16T05:02:12.401Z,7.70
2019-03-16T05:04:42.744Z,7.57
2019-03-16T05:07:12.194Z,6.90
2019-03-16T05:09:41.441Z,6.47
2019-03-16T05:12:10.658Z,7.23
2019-03-16T05:14:39.996Z,7.83
2019-03-16T05:17:09.141Z,7.87
2019-03-16T05:19:38.260Z,7.27
2019-03-16T05:22:07.401Z,6.40
2019-03-16T05:24:36.510Z,5.30
2019-03-16T05:27:05.621Z,6.30
2019-03-16T05:29:34.742Z,6.20
2019-03-16T05:32:03.952Z,6.60
2019-03-16T05:34:33.076Z,6.50
2019-03-16T05:37:02.298Z,6.63
2019-03-16T05:39:31.523Z,6.97
2019-03-16T05:42:00.721Z,6.53
2019-03-16T05:44:29.981Z,6.57
2019-03-16T05:46:59.271Z,6.60
2019-03-16T05:49:28.522Z,6.30
2019-03-16T05:51:57.860Z,5.73
2019-03-16T05:54:27.221Z,5.50
2019-03-16T05:56:56.686Z,4.67
2019-03-16T05:59:26.187Z,5.83
2019-03-16T06:01:55.417Z,6.20
2019-03-16T06:04:23.944Z,5.33
2019-03-16T06:06:52.744Z,5.50
2019-03-16T06:09:21.819Z,6.37
2019-03-16T06:11:51.221Z,5.53
2019-03-16T06:14:20.455Z,5.40
2019-03-16T06:16:49.688Z,4.80
2019-03-16T06:19:19.089Z,5.43
2019-03-16T06:21:48.460Z,4.23
2019-03-16T06:24:17.879Z,3.90
2019-03-16T06:26:47.439Z,4.87
2019-03-16T06:29:17.471Z,4.00
2019-03-16T06:31:45.786Z,4.23
2019-03-16T06:34:14.124Z,4.10
2019-03-16T06:36:42.429Z,4.03
2019-03-16T06:39:10.692Z,4.40
2019-03-16T06:41:39.093Z,3.93
2019-03-16T06:44:07.408Z,4.07
2019-03-16T06:46:35.704Z,4.33
2019-03-16T06:49:04.007Z,4.57
2019-03-16T06:51:32.428Z,4.80
2019-03-16T06:54:00.793Z,4.20
2019-03-16T06:56:29.056Z,4.30
2019-03-16T06:58:58.592Z,4.23
2019-03-16T07:01:26.985Z,4.20
2019-03-16T07:03:55.294Z,4.20
2019-03-16T07:06:23.575Z,4.70
2019-03-16T07:08:52.017Z,4.83
2019-03-16T07:11:20.292Z,5.23
2019-03-16T07:13:48.663Z,4.40
2019-03-16T07:16:16.937Z,4.10
2019-03-16T07:18:58.052Z,4.63
2019-03-16T07:21:15.193Z,3.90
2019-03-16T07:23:43.571Z,3.70
2019-03-16T07:26:15.084Z,3.10
2019-03-16T07:28:41.964Z,2.60
2019-03-16T07:31:10.323Z,1.63
2019-03-16T07:33:38.602Z,1.80
2019-03-16T07:36:06.959Z,1.97
2019-03-16T07:38:35.263Z,1.70
2019-03-16T07:41:03.618Z,1.67
2019-03-16T07:43:31.886Z,1.70
2019-03-16T07:46:00.342Z,1.60
2019-03-16T07:48:29.158Z,1.60
2019-03-16T07:50:57.621Z,1.50
2019-03-16T07:53:25.958Z,1.30
2019-03-16T07:55:54.273Z,1.50
2019-03-16T07:58:22.551Z,1.23
2019-03-16T08:00:50.869Z,1.60
2019-03-16T08:03:19.163Z,1.30
2019-03-16T08:05:47.463Z,1.40
2019-03-16T08:08:15.739Z,1.40
2019-03-16T08:10:44.209Z,1.40
2019-03-16T08:13:12.550Z,1.67
2019-03-16T08:15:40.924Z,1.40
2019-03-16T08:18:09.328Z,1.40
2019-03-16T08:20:37.752Z,1.80
2019-03-16T08:23:06.061Z,1.83
2019-03-16T08:25:34.365Z,1.90
2019-03-16T08:28:02.797Z,1.37
2019-03-16T08:30:31.135Z,1.70
2019-03-16T08:32:59.444Z,1.30
2019-03-16T08:35:27.786Z,1.60
2019-03-16T08:37:56.087Z,1.80
2019-03-16T08:40:24.419Z,1.37
2019-03-16T08:42:52.726Z,1.87
2019-03-16T08:45:21.012Z,1.73
2019-03-16T08:47:49.390Z,1.63
2019-03-16T08:50:17.655Z,1.43
2019-03-16T08:52:46.097Z,1.40
2019-03-16T08:55:14.645Z,1.30
2019-03-16T08:57:43.185Z,1.17
2019-03-16T09:00:12.091Z,1.27
2019-03-16T09:02:40.562Z,1.40
2019-03-16T09:05:08.834Z,1.73
2019-03-16T09:07:37.180Z,1.17
2019-03-16T09:10:06.562Z,1.20
2019-03-16T09:12:34.877Z,0.97
2019-03-16T09:15:04.633Z,1.00
2019-03-16T09:17:32.908Z,1.20
2019-03-16T09:20:01.292Z,1.13
2019-03-16T09:22:29.853Z,1.20
2019-03-16T09:24:58.193Z,1.33
2019-03-16T09:27:31.174Z,1.30
2019-03-16T09:29:56.469Z,1.73
2019-03-16T09:32:24.827Z,1.90
2019-03-16T09:34:53.188Z,1.93
2019-03-16T09:37:21.539Z,2.23
2019-03-16T09:39:49.866Z,2.10
2019-03-16T09:42:18.215Z,2.03
2019-03-16T09:44:46.514Z,2.20
2019-03-16T09:47:14.801Z,2.17
2019-03-16T09:49:43.140Z,2.10
2019-03-16T09:52:11.420Z,2.37
2019-03-16T09:54:39.810Z,2.30
2019-03-16T09:57:08.194Z,2.13
2019-03-16T09:59:36.539Z,2.30
2019-03-16T10:02:04.916Z,1.90
2019-03-16T10:04:33.265Z,1.60
2019-03-16T10:07:01.590Z,2.10
2019-03-16T10:09:29.933Z,1.60
2019-03-16T10:11:58.219Z,1.50
2019-03-16T10:14:26.504Z,1.43
2019-03-16T10:16:54.817Z,1.47
2019-03-16T10:19:23.107Z,1.70
2019-03-16T10:21:51.427Z,1.53
2019-03-16T10:24:19.700Z,1.70
2019-03-16T10:26:48.006Z,1.30
2019-03-16T10:29:16.360Z,1.30
2019-03-16T10:31:44.735Z,1.40
2019-03-16T10:34:13.014Z,1.50
2019-03-16T10:36:41.323Z,1.17
2019-03-16T10:39:09.604Z,1.47
2019-03-16T10:41:38.046Z,1.13
2019-03-16T10:44:06.429Z,1.23
2019-03-16T10:46:34.691Z,1.20
2019-03-16T10:49:03.068Z,1.10
2019-03-16T10:51:31.352Z,1.30
2019-03-16T10:53:59.758Z,1.00
2019-03-16T10:56:28.103Z,1.00
2019-03-16T10:58:57.105Z,1.10
2019-03-16T11:01:25.475Z,1.30
2019-03-16T11:03:53.776Z,1.20
2019-03-16T11:06:22.116Z,1.17
2019-03-16T11:08:50.417Z,1.40
2019-03-16T11:11:18.700Z,1.53
2019-03-16T11:13:47.024Z,1.07
2019-03-16T11:16:16.206Z,1.57
2019-03-16T11:18:44.599Z,1.20
2019-03-16T11:21:13.565Z,1.57
2019-03-16T11:23:41.862Z,1.37
2019-03-16T11:26:10.281Z,1.40
2019-03-16T11:28:38.597Z,1.67
2019-03-16T11:31:07.019Z,1.33
2019-03-16T11:33:35.412Z,1.60
2019-03-16T11:36:04.046Z,1.37
2019-03-16T11:38:32.596Z,1.20
2019-03-16T11:41:01.098Z,1.23
2019-03-16T11:43:29.633Z,1.60
2019-03-16T11:45:58.009Z,1.57
2019-03-16T11:48:26.317Z,1.40
2019-03-16T11:50:54.693Z,1.00
2019-03-16T11:53:23.037Z,1.30
2019-03-16T11:55:54.263Z,1.20
2019-03-16T11:58:21.352Z,1.33
2019-03-16T12:00:49.843Z,1.47
2019-03-16T12:03:18.184Z,1.33
2019-03-16T12:05:46.528Z,1.20
2019-03-16T12:08:14.902Z,1.70
2019-03-16T12:10:43.347Z,1.43
2019-03-16T12:13:17.213Z,1.40
2019-03-16T12:15:41.649Z,1.60
2019-03-16T12:18:09.996Z,1.50
2019-03-16T12:20:38.408Z,1.50
2019-03-16T12:23:06.773Z,1.30
2019-03-16T12:25:35.275Z,1.43
2019-03-16T12:28:07.343Z,1.17
2019-03-16T12:30:41.953Z,1.33
2019-03-16T12:33:10.291Z,1.33
2019-03-16T12:35:38.616Z,1.13
2019-03-16T12:38:06.899Z,1.60
2019-03-16T12:40:35.279Z,1.40
2019-03-16T12:43:03.586Z,1.20
2019-03-16T12:45:32.007Z,1.20
2019-03-16T12:48:00.347Z,1.37
2019-03-16T12:50:28.782Z,1.67
2019-03-16T12:52:57.252Z,1.23
2019-03-16T12:55:25.608Z,1.37
2019-03-16T12:57:53.971Z,1.40
2019-03-16T13:00:22.251Z,1.40
2019-03-16T13:02:50.631Z,1.67
2019-03-16T13:05:18.982Z,1.47
2019-03-16T13:07:47.374Z,1.53
2019-03-16T13:10:16.328Z,1.40
2019-03-16T13:12:44.779Z,1.40
2019-03-16T13:15:13.228Z,1.43
2019-03-16T13:17:41.597Z,1.40
2019-03-16T13:20:11.441Z,1.37
2019-03-16T13:22:39.863Z,1.20
2019-03-16T13:25:08.996Z,1.60
2019-03-16T13:27:37.378Z,1.60
2019-03-16T13:30:07.211Z,1.10
2019-03-16T13:32:35.568Z,1.30
2019-03-16T13:35:04.803Z,1.70
2019-03-16T13:37:33.119Z,1.40
2019-03-16T13:40:01.390Z,1.27
2019-03-16T13:42:29.768Z,1.13
2019-03-16T13:44:58.045Z,1.20
2019-03-16T13:47:26.441Z,1.47
2019-03-16T13:49:54.836Z,1.30
2019-03-16T13:52:23.247Z,1.50
2019-03-16T13:54:51.598Z,1.67
2019-03-16T13:57:20.154Z,1.20
2019-03-16T13:59:48.564Z,1.43
2019-03-16T14:02:16.831Z,1.37
2019-03-16T14:04:45.302Z,1.43
2019-03-16T14:07:13.660Z,1.70
2019-03-16T14:09:42.038Z,1.67
2019-03-16T14:12:10.412Z,1.50
2019-03-16T14:14:38.858Z,1.70
2019-03-16T14:17:07.197Z,1.60
2019-03-16T14:19:35.610Z,1.70
2019-03-16T14:22:03.954Z,1.40
2019-03-16T14:24:32.261Z,1.40
2019-03-16T14:27:00.847Z,1.50
2019-03-16T14:29:29.201Z,1.33
2019-03-16T14:31:57.562Z,1.50
2019-03-16T14:34:25.948Z,2.03
2019-03-16T14:36:57.159Z,1.50
2019-03-16T14:39:24.273Z,2.03
2019-03-16T14:41:52.569Z,1.20
2019-03-16T14:44:20.928Z,1.70
2019-03-16T14:46:49.291Z,1.30
2019-03-16T14:49:17.663Z,1.50
2019-03-16T14:51:46.056Z,1.40
2019-03-16T14:54:14.352Z,1.40
2019-03-16T14:56:42.652Z,1.50
2019-03-16T14:59:10.929Z,1.50
2019-03-16T15:01:39.327Z,1.40
2019-03-16T15:04:07.668Z,1.70
2019-03-16T15:06:36.045Z,1.20
2019-03-16T15:09:05.304Z,1.57
2019-03-16T15:11:33.758Z,1.43
2019-03-16T15:14:02.107Z,1.40
2019-03-16T15:16:30.481Z,1.30
2019-03-16T15:18:58.759Z,1.20
2019-03-16T15:21:27.222Z,1.30
2019-03-16T15:23:55.497Z,1.30
2019-03-16T15:26:23.813Z,1.57
2019-03-16T15:28:55.130Z,1.50
2019-03-16T15:31:22.830Z,1.37
2019-03-16T15:33:51.211Z,1.40
2019-03-16T15:36:19.583Z,1.40
2019-03-16T15:38:47.864Z,1.80
2019-03-16T15:41:16.249Z,1.60
2019-03-16T15:43:44.530Z,1.30
2019-03-16T15:46:12.866Z,1.27
2019-03-16T15:48:41.173Z,1.50
2019-03-16T15:51:09.480Z,1.40
2019-03-16T15:53:37.782Z,1.50
2019-03-16T15:56:06.142Z,1.30
2019-03-16T15:58:35.567Z,1.57
2019-03-16T16:01:04.218Z,1.50
2019-03-16T16:03:32.601Z,1.70
2019-03-16T16:06:00.886Z,1.70
2019-03-16T16:08:29.260Z,2.10
2019-03-16T16:11:01.234Z,1.50
2019-03-16T16:13:30.844Z,1.40
2019-03-16T16:15:59.113Z,1.97
2019-03-16T16:18:27.469Z,1.30
2019-03-16T16:20:55.811Z,1.77
2019-03-16T16:23:24.120Z,1.80
2019-03-16T16:25:52.399Z,2.23
2019-03-16T16:28:20.715Z,1.40
2019-03-16T16:30:48.980Z,1.77
2019-03-16T16:33:17.298Z,1.80
2019-03-16T16:35:45.650Z,1.70
2019-03-16T16:38:13.940Z,1.80
2019-03-16T16:40:42.298Z,1.87
2019-03-16T16:43:10.644Z,2.03
2019-03-16T16:45:38.952Z,2.10
2019-03-16T16:48:07.243Z,1.93
2019-03-16T16:50:35.674Z,1.73
2019-03-16T16:53:03.939Z,2.20
2019-03-16T16:55:32.240Z,2.23
2019-03-16T16:58:00.524Z,2.43
2019-03-16T17:00:28.830Z,2.47
2019-03-16T17:02:57.143Z,2.10
2019-03-16T17:05:25.494Z,1.70
2019-03-16T17:07:53.854Z,1.93
2019-03-16T17:10:22.185Z,1.90
2019-03-16T17:12:53.684Z,1.70
2019-03-16T17:15:22.685Z,1.50
2019-03-16T17:17:51.037Z,1.50
2019-03-16T17:20:19.453Z,1.70
2019-03-16T17:22:47.871Z,2.40
2019-03-16T17:25:16.293Z,1.90
2019-03-16T17:27:44.669Z,1.83
2019-03-16T17:30:14.223Z,1.93
2019-03-16T17:32:42.510Z,1.87
2019-03-16T17:35:10.863Z,2.33
2019-03-16T17:37:39.178Z,1.87
2019-03-16T17:40:08.534Z,1.90
2019-03-16T17:42:36.993Z,2.37
2019-03-16T17:45:06.928Z,1.87
2019-03-16T17:47:35.307Z,2.10
2019-03-16T17:50:04.276Z,2.20
2019-03-16T17:52:32.673Z,2.53
2019-03-16T17:55:01.000Z,2.20
2019-03-16T17:57:29.383Z,2.33
2019-03-16T17:59:57.666Z,2.23
2019-03-16T18:02:25.964Z,2.47
2019-03-16T18:04:54.254Z,2.53
2019-03-16T18:07:22.598Z,2.30
2019-03-16T18:09:50.874Z,2.37
2019-03-16T18:12:19.186Z,2.30
2019-03-16T18:14:47.493Z,2.20
2019-03-16T18:17:15.815Z,2.50
2019-03-16T18:19:44.087Z,2.60
2019-03-16T18:22:12.452Z,2.70
2019-03-16T18:24:40.774Z,3.00
2019-03-16T18:27:09.171Z,2.40
2019-03-16T18:29:37.669Z,3.37
2019-03-16T18:32:08.157Z,2.97
2019-03-16T18:34:36.104Z,3.57
2019-03-16T18:37:04.442Z,3.10
2019-03-16T18:39:32.832Z,3.80
2019-03-16T18:42:01.120Z,3.33
2019-03-16T18:44:29.519Z,4.10
2019-03-16T18:46:57.879Z,3.53
2019-03-16T18:49:26.256Z,3.70
2019-03-16T18:51:54.550Z,3.57
2019-03-16T18:54:22.927Z,3.87
2019-03-16T18:56:51.279Z,3.60
2019-03-16T18:59:19.649Z,4.77
2019-03-16T19:01:47.924Z,4.67
2019-03-16T19:04:16.225Z,4.60
2019-03-16T19:06:44.520Z,4.20
2019-03-16T19:09:12.923Z,4.07
2019-03-16T19:11:41.399Z,3.97
2019-03-16T19:14:09.782Z,3.80
2019-03-16T19:16:38.062Z,3.60
2019-03-16T19:19:06.331Z,3.50
2019-03-16T19:21:34.642Z,3.20
2019-03-16T19:24:03.028Z,3.87
2019-03-16T19:26:31.329Z,3.43
2019-03-16T19:28:59.591Z,3.90
2019-03-16T19:31:27.909Z,2.73
2019-03-16T19:33:56.195Z,3.80
2019-03-16T19:36:24.561Z,3.50
2019-03-16T19:38:52.843Z,3.70
2019-03-16T19:41:21.148Z,3.47
2019-03-16T19:43:50.453Z,3.30
2019-03-16T19:46:18.909Z,3.13
2019-03-16T19:48:47.335Z,3.27
2019-03-16T19:51:15.635Z,3.20
2019-03-16T19:53:43.992Z,3.23
2019-03-16T19:56:12.369Z,3.20
2019-03-16T19:58:40.711Z,3.10
2019-03-16T20:01:09.123Z,3.23
2019-03-16T20:03:37.430Z,3.03
2019-03-16T20:06:05.782Z,3.47
2019-03-16T20:08:34.082Z,3.30
2019-03-16T20:11:06.835Z,3.73
2019-03-16T20:13:32.524Z,3.40
2019-03-16T20:16:00.834Z,3.27
2019-03-16T20:18:29.300Z,3.50
2019-03-16T20:20:57.715Z,3.80
2019-03-16T20:23:26.663Z,3.67
2019-03-16T20:25:55.111Z,4.47
2019-03-16T20:28:23.433Z,3.30
2019-03-16T20:30:51.764Z,3.60
2019-03-16T20:33:20.207Z,4.53
2019-03-16T20:35:48.514Z,3.97
2019-03-16T20:38:16.958Z,3.60
2019-03-16T20:40:45.429Z,3.80
2019-03-16T20:43:13.886Z,3.70
2019-03-16T20:45:42.419Z,4.17
2019-03-16T20:48:10.772Z,3.63
2019-03-16T20:50:39.206Z,3.70
2019-03-16T20:53:08.028Z,3.90
2019-03-16T20:55:36.517Z,3.60
2019-03-16T20:58:05.073Z,3.80
2019-03-16T21:00:33.553Z,3.23
2019-03-16T21:03:01.993Z,3.70
2019-03-16T21:05:30.425Z,3.60
2019-03-16T21:07:59.104Z,3.67
2019-03-16T21:10:29.066Z,3.33
2019-03-16T21:12:57.423Z,3.90
2019-03-16T21:15:25.734Z,3.80
2019-03-16T21:17:55.872Z,3.50
2019-03-16T21:20:24.472Z,3.70
2019-03-16T21:22:52.875Z,3.70
2019-03-16T21:25:21.270Z,3.60
2019-03-16T21:27:49.716Z,3.67
2019-03-16T21:30:20.951Z,3.33
2019-03-16T21:32:49.421Z,3.43
2019-03-16T21:35:20.830Z,4.00
2019-03-16T21:37:49.104Z,5.50
2019-03-16T21:40:17.503Z,3.90
2019-03-16T21:42:45.955Z,3.90
2019-03-16T21:45:14.426Z,4.10
2019-03-16T21:47:42.873Z,3.67
2019-03-16T21:50:11.637Z,3.30
2019-03-16T21:52:40.097Z,3.80
2019-03-16T21:55:08.954Z,3.93
2019-03-16T21:57:37.330Z,3.70
2019-03-16T22:00:07.160Z,3.40
2019-03-16T22:02:35.644Z,3.50
2019-03-16T22:05:04.956Z,3.37
2019-03-16T22:07:33.305Z,3.40
2019-03-16T22:10:01.611Z,4.77
2019-03-16T22:12:30.001Z,3.63
2019-03-16T22:14:58.339Z,3.87
2019-03-16T22:17:26.673Z,4.60
2019-03-16T22:19:55.039Z,4.40
2019-03-16T22:22:23.406Z,4.50
2019-03-16T22:24:51.827Z,4.57
2019-03-16T22:27:20.241Z,3.67
2019-03-16T22:29:48.515Z,3.33
2019-03-16T22:32:16.814Z,3.33
2019-03-16T22:34:45.092Z,3.33
2019-03-16T22:37:13.400Z,3.43
2019-03-16T22:39:41.685Z,3.30
2019-03-16T22:42:10.082Z,3.00
2019-03-16T22:44:38.416Z,3.27
2019-03-16T22:47:06.697Z,3.17
2019-03-16T22:49:34.990Z,3.33
2019-03-16T22:52:03.335Z,3.20
2019-03-16T22:54:31.636Z,2.93
2019-03-16T22:56:59.991Z,2.60
2019-03-16T22:59:28.296Z,2.70
2019-03-16T23:01:56.629Z,2.70
2019-03-16T23:04:24.940Z,2.50
2019-03-16T23:06:53.319Z,3.20
2019-03-16T23:09:21.693Z,2.70
2019-03-16T23:11:49.963Z,2.90
2019-03-16T23:14:18.331Z,2.80
2019-03-16T23:16:46.613Z,2.53
2019-03-16T23:19:14.926Z,2.70
2019-03-16T23:21:43.273Z,2.90
2019-03-16T23:24:11.568Z,2.83
2019-03-16T23:26:39.839Z,2.63
2019-03-16T23:29:08.161Z,3.00
2019-03-16T23:31:36.588Z,2.37
2019-03-16T23:34:04.908Z,2.60
2019-03-16T23:36:33.239Z,3.10
2019-03-16T23:39:02.396Z,2.43
2019-03-16T23:41:30.813Z,2.50
2019-03-16T23:43:59.100Z,2.83
2019-03-16T23:46:27.397Z,2.80
2019-03-16T23:48:55.681Z,2.60
2019-03-16T23:51:24.061Z,2.73
2019-03-16T23:53:52.391Z,2.47
2019-03-16T23:56:20.690Z,3.10
2019-03-16T23:58:49.038Z,2.53
